sensor_id;sensor_type;location;lat;lon;timestamp;pressure;altitude;pressure_sealevel;temperature;humidity
80382;BME280;69692;55.820;37.490;2024-01-16T00:02:01;97351.66;;;-0.38;78.71
80382;BME280;69692;55.820;37.490;2024-01-16T00:04:28;97359.28;;;-0.30;79.00
80382;BME280;69692;55.820;37.490;2024-01-16T00:06:56;97349.97;;;-0.33;79.13
80382;BME280;69692;55.820;37.490;2024-01-16T00:09:22;97349.81;;;-0.38;78.29
80382;BME280;69692;55.820;37.490;2024-01-16T00:11:49;97347.72;;;-0.29;78.64
80382;BME280;69692;55.820;37.490;2024-01-16T00:14:15;97357.03;;;-0.26;78.23
80382;BME280;69692;55.820;37.490;2024-01-16T00:16:45;97351.19;;;-0.35;78.79
80382;BME280;69692;55.820;37.490;2024-01-16T00:19:12;97343.72;;;-0.38;78.70
80382;BME280;69692;55.820;37.490;2024-01-16T00:21:39;97348.72;;;-0.30;78.10
80382;BME280;69692;55.820;37.490;2024-01-16T00:24:05;97354.66;;;-0.35;78.57
80382;BME280;69692;55.820;37.490;2024-01-16T00:26:31;97351.56;;;-0.32;77.82
80382;BME280;69692;55.820;37.490;2024-01-16T00:28:57;97347.53;;;-0.34;78.56
80382;BME280;69692;55.820;37.490;2024-01-16T00:31:23;97353.56;;;-0.27;78.94
80382;BME280;69692;55.820;37.490;2024-01-16T00:33:49;97352.19;;;-0.29;78.55
80382;BME280;69692;55.820;37.490;2024-01-16T00:36:15;97344.19;;;-0.23;78.38
80382;BME280;69692;55.820;37.490;2024-01-16T00:38:41;97355.13;;;-0.19;78.21
80382;BME280;69692;55.820;37.490;2024-01-16T00:41:06;97343.75;;;-0.20;78.21
80382;BME280;69692;55.820;37.490;2024-01-16T00:43:33;97351.53;;;-0.25;78.21
80382;BME280;69692;55.820;37.490;2024-01-16T00:46:01;97351.97;;;-0.28;78.41
80382;BME280;69692;55.820;37.490;2024-01-16T00:48:27;97349.91;;;-0.26;77.63
80382;BME280;69692;55.820;37.490;2024-01-16T00:50:53;97348.88;;;-0.25;77.68
80382;BME280;69692;55.820;37.490;2024-01-16T00:53:18;97344.19;;;-0.23;78.38
80382;BME280;69692;55.820;37.490;2024-01-16T00:55:44;97348.66;;;-0.23;77.43
80382;BME280;69692;55.820;37.490;2024-01-16T00:58:10;97334.78;;;-0.19;78.03
80382;BME280;69692;55.820;37.490;2024-01-16T01:00:36;97337.59;;;-0.14;77.84
80382;BME280;69692;55.820;37.490;2024-01-16T01:03:04;97346.97;;;-0.18;77.60
80382;BME280;69692;55.820;37.490;2024-01-16T01:05:29;97337.06;;;-0.22;77.91
80382;BME280;69692;55.820;37.490;2024-01-16T01:07:56;97330.09;;;-0.17;77.91
80382;BME280;69692;55.820;37.490;2024-01-16T01:10:22;97336.19;;;-0.16;78.16
80382;BME280;69692;55.820;37.490;2024-01-16T01:12:50;97347.63;;;-0.22;77.76
80382;BME280;69692;55.820;37.490;2024-01-16T01:15:19;97341.00;;;-0.32;77.63
80382;BME280;69692;55.820;37.490;2024-01-16T01:17:48;97335.34;;;-0.35;78.15
80382;BME280;69692;55.820;37.490;2024-01-16T01:20:15;97338.81;;;-0.35;78.21
80382;BME280;69692;55.820;37.490;2024-01-16T01:22:41;97332.66;;;-0.28;77.99
80382;BME280;69692;55.820;37.490;2024-01-16T01:25:07;97331.41;;;-0.26;77.74
80382;BME280;69692;55.820;37.490;2024-01-16T01:27:33;97338.59;;;-0.33;78.03
80382;BME280;69692;55.820;37.490;2024-01-16T01:29:59;97323.13;;;-0.29;77.33
80382;BME280;69692;55.820;37.490;2024-01-16T01:32:25;97335.72;;;-0.32;77.33
80382;BME280;69692;55.820;37.490;2024-01-16T01:34:52;97323.72;;;-0.27;76.88
80382;BME280;69692;55.820;37.490;2024-01-16T01:37:18;97325.53;;;-0.28;77.82
80382;BME280;69692;55.820;37.490;2024-01-16T01:39:44;97329.81;;;-0.27;77.30
80382;BME280;69692;55.820;37.490;2024-01-16T01:42:10;97325.97;;;-0.31;77.69
80382;BME280;69692;55.820;37.490;2024-01-16T01:44:36;97321.28;;;-0.29;77.82
80382;BME280;69692;55.820;37.490;2024-01-16T01:47:02;97325.53;;;-0.28;77.31
80382;BME280;69692;55.820;37.490;2024-01-16T01:49:28;97333.03;;;-0.25;77.29
80382;BME280;69692;55.820;37.490;2024-01-16T01:51:54;97334.06;;;-0.26;77.54
80382;BME280;69692;55.820;37.490;2024-01-16T01:54:21;97320.03;;;-0.26;77.48
80382;BME280;69692;55.820;37.490;2024-01-16T01:56:48;97325.78;;;-0.29;77.21
80382;BME280;69692;55.820;37.490;2024-01-16T01:59:17;97331.56;;;-0.21;76.88
80382;BME280;69692;55.820;37.490;2024-01-16T02:01:48;97331.13;;;-0.18;76.98
80382;BME280;69692;55.820;37.490;2024-01-16T02:04:16;97333.63;;;-0.23;77.40
80382;BME280;69692;55.820;37.490;2024-01-16T02:06:43;97326.72;;;-0.24;76.86
80382;BME280;69692;55.820;37.490;2024-01-16T02:09:12;97334.19;;;-0.21;76.88
80382;BME280;69692;55.820;37.490;2024-01-16T02:11:42;97326.13;;;-0.26;77.35
80382;BME280;69692;55.820;37.490;2024-01-16T02:14:10;97327.31;;;-0.22;77.25
80382;BME280;69692;55.820;37.490;2024-01-16T02:16:39;97327.06;;;-0.20;77.25
80382;BME280;69692;55.820;37.490;2024-01-16T02:19:06;97335.38;;;-0.17;75.76
80382;BME280;69692;55.820;37.490;2024-01-16T02:21:41;97328.19;;;-0.28;76.98
80382;BME280;69692;55.820;37.490;2024-01-16T02:24:08;97325.91;;;-0.24;76.64
80382;BME280;69692;55.820;37.490;2024-01-16T02:26:35;97334.06;;;-0.26;76.13
80382;BME280;69692;55.820;37.490;2024-01-16T02:29:02;97328.00;;;-0.33;76.72
80382;BME280;69692;55.820;37.490;2024-01-16T02:31:31;97329.63;;;-0.32;77.09
80382;BME280;69692;55.820;37.490;2024-01-16T02:33:58;97327.44;;;-0.35;76.78
80382;BME280;69692;55.820;37.490;2024-01-16T02:36:25;97332.78;;;-0.42;77.15
80382;BME280;69692;55.820;37.490;2024-01-16T02:38:51;97329.03;;;-0.34;77.30
80382;BME280;69692;55.820;37.490;2024-01-16T02:41:18;97330.22;;;-0.30;77.47
80382;BME280;69692;55.820;37.490;2024-01-16T02:43:44;97338.75;;;-0.28;76.61
80382;BME280;69692;55.820;37.490;2024-01-16T02:46:10;97339.56;;;-0.27;76.95
80382;BME280;69692;55.820;37.490;2024-01-16T02:48:37;97336.16;;;-0.35;76.83
80382;BME280;69692;55.820;37.490;2024-01-16T02:51:04;97340.50;;;-0.22;76.66
80382;BME280;69692;55.820;37.490;2024-01-16T02:53:31;97344.66;;;-0.33;77.08
80382;BME280;69692;55.820;37.490;2024-01-16T02:55:57;97344.88;;;-0.34;76.50
80382;BME280;69692;55.820;37.490;2024-01-16T02:58:30;97347.91;;;-0.31;76.59
80382;BME280;69692;55.820;37.490;2024-01-16T03:00:57;97338.59;;;-0.33;76.99
80382;BME280;69692;55.820;37.490;2024-01-16T03:03:23;97343.28;;;-0.35;77.66
80382;BME280;69692;55.820;37.490;2024-01-16T03:05:52;97341.06;;;-0.38;77.38
80382;BME280;69692;55.820;37.490;2024-01-16T03:08:18;97341.06;;;-0.38;77.46
80382;BME280;69692;55.820;37.490;2024-01-16T03:10:43;97348.41;;;-0.40;77.27
80382;BME280;69692;55.820;37.490;2024-01-16T03:13:10;97347.25;;;-0.44;77.17
80382;BME280;69692;55.820;37.490;2024-01-16T03:15:36;97349.81;;;-0.38;77.41
80382;BME280;69692;55.820;37.490;2024-01-16T03:18:03;97343.66;;;-0.32;77.45
80382;BME280;69692;55.820;37.490;2024-01-16T03:20:29;97353.19;;;-0.31;77.27
80382;BME280;69692;55.820;37.490;2024-01-16T03:22:55;97333.38;;;-0.40;77.30
80382;BME280;69692;55.820;37.490;2024-01-16T03:25:21;97340.94;;;-0.43;77.78
80382;BME280;69692;55.820;37.490;2024-01-16T03:27:47;97341.50;;;-0.41;78.00
80382;BME280;69692;55.820;37.490;2024-01-16T03:30:14;97336.59;;;-0.38;78.05
80382;BME280;69692;55.820;37.490;2024-01-16T03:32:40;97351.69;;;-0.45;77.83
80382;BME280;69692;55.820;37.490;2024-01-16T03:35:07;97339.47;;;-0.39;77.48
80382;BME280;69692;55.820;37.490;2024-01-16T03:37:33;97344.31;;;-0.36;77.79
80382;BME280;69692;55.820;37.490;2024-01-16T03:40:00;97335.66;;;-0.43;77.82
80382;BME280;69692;55.820;37.490;2024-01-16T03:42:26;97333.81;;;-0.43;77.78
80382;BME280;69692;55.820;37.490;2024-01-16T03:44:52;97338.34;;;-0.50;78.06
80382;BME280;69692;55.820;37.490;2024-01-16T03:47:18;97335.91;;;-0.51;77.52
80382;BME280;69692;55.820;37.490;2024-01-16T03:49:45;97333.19;;;-0.45;78.13
80382;BME280;69692;55.820;37.490;2024-01-16T03:52:11;97339.34;;;-0.51;77.81
80382;BME280;69692;55.820;37.490;2024-01-16T03:54:36;97342.59;;;-0.49;78.30
80382;BME280;69692;55.820;37.490;2024-01-16T03:57:02;97340.16;;;-0.50;77.66
80382;BME280;69692;55.820;37.490;2024-01-16T03:59:28;97344.19;;;-0.48;78.22
80382;BME280;69692;55.820;37.490;2024-01-16T04:01:54;97352.53;;;-0.44;77.21
80382;BME280;69692;55.820;37.490;2024-01-16T04:04:20;97351.31;;;-0.48;77.63
80382;BME280;69692;55.820;37.490;2024-01-16T04:06:46;97342.75;;;-0.44;78.56
80382;BME280;69692;55.820;37.490;2024-01-16T04:09:13;97349.53;;;-0.29;77.75
80382;BME280;69692;55.820;37.490;2024-01-16T04:11:40;97345.25;;;-0.31;76.95
80382;BME280;69692;55.820;37.490;2024-01-16T04:14:07;97341.50;;;-0.41;77.29
80382;BME280;69692;55.820;37.490;2024-01-16T04:16:33;97344.75;;;-0.39;76.87
80382;BME280;69692;55.820;37.490;2024-01-16T04:18:59;97342.91;;;-0.39;77.31
80382;BME280;69692;55.820;37.490;2024-01-16T04:21:25;97343.75;;;-0.45;77.19
80382;BME280;69692;55.820;37.490;2024-01-16T04:23:51;97343.75;;;-0.45;77.18
80382;BME280;69692;55.820;37.490;2024-01-16T04:26:17;97344.78;;;-0.46;76.74
80382;BME280;69692;55.820;37.490;2024-01-16T04:28:44;97337.91;;;-0.47;76.14
80382;BME280;69692;55.820;37.490;2024-01-16T04:31:10;97355.19;;;-0.51;77.31
80382;BME280;69692;55.820;37.490;2024-01-16T04:33:38;97350.50;;;-0.49;76.76
80382;BME280;69692;55.820;37.490;2024-01-16T04:36:05;97364.97;;;-0.51;76.93
80382;BME280;69692;55.820;37.490;2024-01-16T04:38:32;97362.16;;;-0.56;77.57
80382;BME280;69692;55.820;37.490;2024-01-16T04:41:02;97354.63;;;-0.53;77.50
80382;BME280;69692;55.820;37.490;2024-01-16T04:43:29;97355.50;;;-0.59;77.11
80382;BME280;69692;55.820;37.490;2024-01-16T04:45:55;97357.50;;;-0.61;77.41
80382;BME280;69692;55.820;37.490;2024-01-16T04:48:21;97360.59;;;-0.64;77.34
80382;BME280;69692;55.820;37.490;2024-01-16T04:50:47;97372.66;;;-0.75;79.08
80382;BME280;69692;55.820;37.490;2024-01-16T04:53:14;97379.97;;;-0.77;77.59
80382;BME280;69692;55.820;37.490;2024-01-16T04:55:40;97385.09;;;-0.82;78.21
80382;BME280;69692;55.820;37.490;2024-01-16T04:58:07;97378.75;;;-0.74;77.97
80382;BME280;69692;55.820;37.490;2024-01-16T05:00:33;97378.53;;;-0.73;78.31
80382;BME280;69692;55.820;37.490;2024-01-16T05:02:59;97376.50;;;-0.71;77.10
80382;BME280;69692;55.820;37.490;2024-01-16T05:05:25;97382.53;;;-0.64;76.97
80382;BME280;69692;55.820;37.490;2024-01-16T05:07:50;97393.84;;;-0.56;76.88
80382;BME280;69692;55.820;37.490;2024-01-16T05:10:17;97388.94;;;-0.53;76.73
80382;BME280;69692;55.820;37.490;2024-01-16T05:12:43;97390.19;;;-0.55;75.92
80382;BME280;69692;55.820;37.490;2024-01-16T05:15:10;97387.56;;;-0.55;75.40
80382;BME280;69692;55.820;37.490;2024-01-16T05:17:40;97386.97;;;-0.57;75.82
80382;BME280;69692;55.820;37.490;2024-01-16T05:20:06;97379.03;;;-0.57;75.52
80382;BME280;69692;55.820;37.490;2024-01-16T05:22:32;97379.19;;;-0.52;75.76
80382;BME280;69692;55.820;37.490;2024-01-16T05:24:59;97375.59;;;-0.58;75.60
80382;BME280;69692;55.820;37.490;2024-01-16T05:27:25;97380.66;;;-0.56;75.45
80382;BME280;69692;55.820;37.490;2024-01-16T05:29:51;97392.28;;;-0.64;75.83
80382;BME280;69692;55.820;37.490;2024-01-16T05:32:17;97377.63;;;-0.60;76.12
80382;BME280;69692;55.820;37.490;2024-01-16T05:34:43;97379.25;;;-0.59;76.07
80382;BME280;69692;55.820;37.490;2024-01-16T05:37:08;97368.94;;;-0.67;75.63
80382;BME280;69692;55.820;37.490;2024-01-16T05:39:34;97375.81;;;-0.59;76.17
80382;BME280;69692;55.820;37.490;2024-01-16T05:42:02;97373.75;;;-0.57;76.35
80382;BME280;69692;55.820;37.490;2024-01-16T05:44:28;97375.97;;;-0.54;75.89
80382;BME280;69692;55.820;37.490;2024-01-16T05:46:54;97377.13;;;-0.50;75.84
80382;BME280;69692;55.820;37.490;2024-01-16T05:49:39;97370.47;;;-0.53;75.06
80382;BME280;69692;55.820;37.490;2024-01-16T05:52:05;97368.78;;;-0.47;76.06
80382;BME280;69692;55.820;37.490;2024-01-16T05:54:31;97369.00;;;-0.49;75.51
80382;BME280;69692;55.820;37.490;2024-01-16T05:56:57;97374.50;;;-0.50;75.06
80382;BME280;69692;55.820;37.490;2024-01-16T05:59:22;97369.59;;;-0.47;75.20
80382;BME280;69692;55.820;37.490;2024-01-16T06:01:48;97366.94;;;-0.47;75.32
80382;BME280;69692;55.820;37.490;2024-01-16T06:04:15;97360.34;;;-0.56;75.53
80382;BME280;69692;55.820;37.490;2024-01-16T06:06:40;97365.19;;;-0.53;75.52
80382;BME280;69692;55.820;37.490;2024-01-16T06:09:11;97367.22;;;-0.55;74.88
80382;BME280;69692;55.820;37.490;2024-01-16T06:11:39;97377.34;;;-0.52;75.75
80382;BME280;69692;55.820;37.490;2024-01-16T06:14:10;97377.00;;;-0.55;75.42
80382;BME280;69692;55.820;37.490;2024-01-16T06:16:37;97387.56;;;-0.55;74.45
80382;BME280;69692;55.820;37.490;2024-01-16T06:19:03;97390.13;;;-0.74;75.25
80382;BME280;69692;55.820;37.490;2024-01-16T06:21:30;97405.34;;;-0.76;76.30
80382;BME280;69692;55.820;37.490;2024-01-16T06:23:56;97411.06;;;-0.79;75.99
80382;BME280;69692;55.820;37.490;2024-01-16T06:26:22;97404.38;;;-0.81;75.51
80382;BME280;69692;55.820;37.490;2024-01-16T06:28:48;97401.75;;;-0.81;76.29
80382;BME280;69692;55.820;37.490;2024-01-16T06:31:16;97401.50;;;-0.73;75.83
80382;BME280;69692;55.820;37.490;2024-01-16T06:33:42;97406.88;;;-0.93;75.63
80382;BME280;69692;55.820;37.490;2024-01-16T06:36:08;97410.75;;;-0.89;75.58
80382;BME280;69692;55.820;37.490;2024-01-16T06:38:33;97397.34;;;-0.94;75.37
80382;BME280;69692;55.820;37.490;2024-01-16T06:40:59;97401.38;;;-0.85;75.54
80382;BME280;69692;55.820;37.490;2024-01-16T06:43:26;97396.69;;;-0.90;75.98
80382;BME280;69692;55.820;37.490;2024-01-16T06:45:52;97404.25;;;-0.93;75.48
80382;BME280;69692;55.820;37.490;2024-01-16T06:48:18;97412.38;;;-0.95;76.29
80382;BME280;69692;55.820;37.490;2024-01-16T06:50:44;97409.16;;;-0.97;76.13
80382;BME280;69692;55.820;37.490;2024-01-16T06:53:10;97409.50;;;-0.86;75.78
80382;BME280;69692;55.820;37.490;2024-01-16T06:55:36;97407.38;;;-0.71;75.72
80382;BME280;69692;55.820;37.490;2024-01-16T06:58:03;97407.91;;;-0.63;75.69
80382;BME280;69692;55.820;37.490;2024-01-16T07:00:29;97396.75;;;-0.65;74.93
80382;BME280;69692;55.820;37.490;2024-01-16T07:02:55;97394.38;;;-0.73;74.56
80382;BME280;69692;55.820;37.490;2024-01-16T07:05:22;97397.44;;;-0.76;75.05
80382;BME280;69692;55.820;37.490;2024-01-16T07:07:48;97393.38;;;-0.78;75.14
80382;BME280;69692;55.820;37.490;2024-01-16T07:10:14;97401.50;;;-0.73;75.30
80382;BME280;69692;55.820;37.490;2024-01-16T07:12:45;97407.97;;;-0.69;75.14
80382;BME280;69692;55.820;37.490;2024-01-16T07:15:11;97415.28;;;-0.71;75.15
80382;BME280;69692;55.820;37.490;2024-01-16T07:17:37;97420.59;;;-0.78;74.89
80382;BME280;69692;55.820;37.490;2024-01-16T07:20:04;97424.25;;;-0.79;75.00
80382;BME280;69692;55.820;37.490;2024-01-16T07:22:30;97419.56;;;-0.77;75.06
80382;BME280;69692;55.820;37.490;2024-01-16T07:24:56;97429.16;;;-0.82;74.70
80382;BME280;69692;55.820;37.490;2024-01-16T07:27:22;97426.09;;;-0.79;74.58
80382;BME280;69692;55.820;37.490;2024-01-16T07:29:48;97421.63;;;-0.79;75.06
80382;BME280;69692;55.820;37.490;2024-01-16T07:32:14;97415.91;;;-0.76;75.24
80382;BME280;69692;55.820;37.490;2024-01-16T07:34:40;97404.94;;;-0.73;74.54
80382;BME280;69692;55.820;37.490;2024-01-16T07:37:06;97408.78;;;-0.69;74.33
80382;BME280;69692;55.820;37.490;2024-01-16T07:39:35;97413.84;;;-0.67;74.07
80382;BME280;69692;55.820;37.490;2024-01-16T07:42:01;97414.06;;;-0.69;74.28
80382;BME280;69692;55.820;37.490;2024-01-16T07:44:27;97410.38;;;-0.68;74.45
80382;BME280;69692;55.820;37.490;2024-01-16T07:46:53;97415.28;;;-0.71;74.48
80382;BME280;69692;55.820;37.490;2024-01-16T07:49:19;97412.94;;;-0.86;73.75
80382;BME280;69692;55.820;37.490;2024-01-16T07:51:45;97412.53;;;-0.83;74.28
80382;BME280;69692;55.820;37.490;2024-01-16T07:54:11;97408.34;;;-0.97;74.50
80382;BME280;69692;55.820;37.490;2024-01-16T07:56:38;97407.25;;;-0.90;74.26
80382;BME280;69692;55.820;37.490;2024-01-16T07:59:04;97394.06;;;-0.90;74.19
80382;BME280;69692;55.820;37.490;2024-01-16T08:01:30;97386.56;;;-0.86;73.77
80382;BME280;69692;55.820;37.490;2024-01-16T08:03:56;97389.19;;;-0.86;73.56
80382;BME280;69692;55.820;37.490;2024-01-16T08:06:23;97393.81;;;-0.81;73.24
80382;BME280;69692;55.820;37.490;2024-01-16T08:08:49;97392.97;;;-0.75;72.56
80382;BME280;69692;55.820;37.490;2024-01-16T08:11:17;97399.09;;;-0.81;72.37
80382;BME280;69692;55.820;37.490;2024-01-16T08:13:43;97397.69;;;-0.84;71.92
80382;BME280;69692;55.820;37.490;2024-01-16T08:16:09;97393.38;;;-0.78;71.90
80382;BME280;69692;55.820;37.490;2024-01-16T08:18:35;97393.81;;;-0.81;72.12
80382;BME280;69692;55.820;37.490;2024-01-16T08:21:02;97381.06;;;-0.84;72.00
80382;BME280;69692;55.820;37.490;2024-01-16T08:23:27;97380.50;;;-0.93;71.74
80382;BME280;69692;55.820;37.490;2024-01-16T08:25:53;97384.97;;;-0.94;71.15
80382;BME280;69692;55.820;37.490;2024-01-16T08:28:19;97376.44;;;-0.89;71.33
80382;BME280;69692;55.820;37.490;2024-01-16T08:30:45;97370.28;;;-0.83;71.17
80382;BME280;69692;55.820;37.490;2024-01-16T08:33:12;97376.53;;;-0.77;70.83
80382;BME280;69692;55.820;37.490;2024-01-16T08:35:38;97382.81;;;-0.78;70.52
80382;BME280;69692;55.820;37.490;2024-01-16T08:38:04;97368.28;;;-0.87;70.21
80382;BME280;69692;55.820;37.490;2024-01-16T08:40:30;97363.00;;;-0.87;70.09
80382;BME280;69692;55.820;37.490;2024-01-16T08:42:56;97367.59;;;-0.76;70.42
80382;BME280;69692;55.820;37.490;2024-01-16T08:45:22;97376.50;;;-0.71;70.27
80382;BME280;69692;55.820;37.490;2024-01-16T08:47:49;97373.28;;;-0.79;69.60
80382;BME280;69692;55.820;37.490;2024-01-16T08:50:15;97365.75;;;-0.51;69.62
80382;BME280;69692;55.820;37.490;2024-01-16T08:52:41;97376.56;;;-0.52;69.27
80382;BME280;69692;55.820;37.490;2024-01-16T08:55:08;97381.75;;;-0.46;68.82
80382;BME280;69692;55.820;37.490;2024-01-16T08:57:37;97373.00;;;-0.40;68.76
80382;BME280;69692;55.820;37.490;2024-01-16T09:00:05;97376.47;;;-0.46;69.67
80382;BME280;69692;55.820;37.490;2024-01-16T09:02:31;97374.47;;;-0.44;69.20
80382;BME280;69692;55.820;37.490;2024-01-16T09:04:58;97369.59;;;-0.47;69.55
80382;BME280;69692;55.820;37.490;2024-01-16T09:07:25;97370.47;;;-0.28;69.32
80382;BME280;69692;55.820;37.490;2024-01-16T09:09:51;97370.47;;;-0.28;69.03
80382;BME280;69692;55.820;37.490;2024-01-16T09:12:17;97362.53;;;-0.28;69.29
80382;BME280;69692;55.820;37.490;2024-01-16T09:14:43;97364.03;;;-0.14;68.92
80382;BME280;69692;55.820;37.490;2024-01-16T09:17:09;97359.91;;;-0.10;68.14
80382;BME280;69692;55.820;37.490;2024-01-16T09:19:36;97345.38;;;-0.01;68.40
80382;BME280;69692;55.820;37.490;2024-01-16T09:22:02;97347.28;;;0.11;67.44
80382;BME280;69692;55.820;37.490;2024-01-16T09:24:30;97341.56;;;-0.05;67.96
80382;BME280;69692;55.820;37.490;2024-01-16T09:26:56;97339.88;;;0.01;67.74
80382;BME280;69692;55.820;37.490;2024-01-16T09:29:23;97347.28;;;-0.08;67.76
80382;BME280;69692;55.820;37.490;2024-01-16T09:31:50;97338.78;;;-0.10;67.26
80382;BME280;69692;55.820;37.490;2024-01-16T09:34:19;97353.28;;;-0.01;67.07
80382;BME280;69692;55.820;37.490;2024-01-16T09:36:45;97344.81;;;0.16;67.49
80382;BME280;69692;55.820;37.490;2024-01-16T09:39:12;97348.63;;;0.02;67.01
80382;BME280;69692;55.820;37.490;2024-01-16T09:41:42;97355.53;;;0.03;67.71
80382;BME280;69692;55.820;37.490;2024-01-16T09:44:08;97353.00;;;0.08;67.88
80382;BME280;69692;55.820;37.490;2024-01-16T09:46:35;97352.03;;;-0.16;67.75
80382;BME280;69692;55.820;37.490;2024-01-16T09:49:03;97363.59;;;-0.36;68.62
80382;BME280;69692;55.820;37.490;2024-01-16T09:51:29;97362.56;;;-0.35;68.94
80382;BME280;69692;55.820;37.490;2024-01-16T09:53:55;97350.19;;;-0.34;68.92
80382;BME280;69692;55.820;37.490;2024-01-16T09:56:23;97350.34;;;-0.29;68.77
80382;BME280;69692;55.820;37.490;2024-01-16T09:58:55;97345.53;;;-0.14;69.14
80382;BME280;69692;55.820;37.490;2024-01-16T10:01:23;97354.91;;;-0.18;68.75
80382;BME280;69692;55.820;37.490;2024-01-16T10:03:52;97341.91;;;-0.19;68.90
80382;BME280;69692;55.820;37.490;2024-01-16T10:06:19;97339.34;;;-0.08;68.12
80382;BME280;69692;55.820;37.490;2024-01-16T10:08:46;97337.97;;;0.08;67.95
80382;BME280;69692;55.820;37.490;2024-01-16T10:11:12;97335.69;;;0.12;67.46
80382;BME280;69692;55.820;37.490;2024-01-16T10:13:38;97328.50;;;0.19;68.02
80382;BME280;69692;55.820;37.490;2024-01-16T10:16:04;97330.34;;;0.18;67.75
80382;BME280;69692;55.820;37.490;2024-01-16T10:18:30;97334.66;;;0.31;66.61
80382;BME280;69692;55.820;37.490;2024-01-16T10:20:56;97321.44;;;0.31;66.82
80382;BME280;69692;55.820;37.490;2024-01-16T10:23:23;97318.78;;;0.31;67.08
80382;BME280;69692;55.820;37.490;2024-01-16T10:26:11;97316.66;;;0.21;66.64
80382;BME280;69692;55.820;37.490;2024-01-16T10:28:39;97312.78;;;0.06;67.24
80382;BME280;69692;55.820;37.490;2024-01-16T10:31:09;97313.94;;;0.10;67.16
80382;BME280;69692;55.820;37.490;2024-01-16T10:33:36;97307.28;;;0.07;67.12
80382;BME280;69692;55.820;37.490;2024-01-16T10:36:13;97306.16;;;-0.04;67.09
80382;BME280;69692;55.820;37.490;2024-01-16T10:38:40;97303.75;;;-0.23;67.99
80382;BME280;69692;55.820;37.490;2024-01-16T10:41:13;97305.09;;;-0.14;68.26
80382;BME280;69692;55.820;37.490;2024-01-16T10:43:41;97298.09;;;-0.09;68.52
80382;BME280;69692;55.820;37.490;2024-01-16T10:46:15;97297.50;;;-0.11;68.02
80382;BME280;69692;55.820;37.490;2024-01-16T10:48:43;97297.22;;;-0.03;68.63
80382;BME280;69692;55.820;37.490;2024-01-16T10:51:11;97290.44;;;-0.17;68.12
80382;BME280;69692;55.820;37.490;2024-01-16T10:53:42;97285.16;;;-0.17;68.09
80382;BME280;69692;55.820;37.490;2024-01-16T10:56:10;97278.13;;;-0.05;68.35
80382;BME280;69692;55.820;37.490;2024-01-16T11:01:26;97278.56;;;-0.08;67.72
80382;BME280;69692;55.820;37.490;2024-01-16T11:03:54;97274.44;;;-0.04;68.00
80382;BME280;69692;55.820;37.490;2024-01-16T11:06:23;97283.34;;;0.02;68.05
80382;BME280;69692;55.820;37.490;2024-01-16T11:08:49;97281.13;;;-0.01;67.99
80382;BME280;69692;55.820;37.490;2024-01-16T11:11:15;97277.66;;;-0.02;68.46
80382;BME280;69692;55.820;37.490;2024-01-16T11:13:42;97271.16;;;0.01;68.42
80382;BME280;69692;55.820;37.490;2024-01-16T11:16:12;97284.16;;;0.03;68.87
80382;BME280;69692;55.820;37.490;2024-01-16T11:18:38;97283.41;;;-0.05;68.54
80382;BME280;69692;55.820;37.490;2024-01-16T11:21:07;97275.56;;;-0.11;69.41
80382;BME280;69692;55.820;37.490;2024-01-16T11:23:35;97276.22;;;-0.16;69.26
80382;BME280;69692;55.820;37.490;2024-01-16T11:26:30;97279.47;;;-0.14;69.24
80382;BME280;69692;55.820;37.490;2024-01-16T11:29:00;97270.47;;;-0.31;69.46
80382;BME280;69692;55.820;37.490;2024-01-16T11:31:34;97277.69;;;-0.38;69.20
80382;BME280;69692;55.820;37.490;2024-01-16T11:34:02;97271.63;;;-0.45;69.92
80382;BME280;69692;55.820;37.490;2024-01-16T11:36:51;97266.81;;;-0.48;69.77
80382;BME280;69692;55.820;37.490;2024-01-16T11:39:22;97258.59;;;-0.58;70.21
80382;BME280;69692;55.820;37.490;2024-01-16T11:41:51;97259.91;;;-0.49;70.24
80382;BME280;69692;55.820;37.490;2024-01-16T11:44:43;97261.69;;;-0.43;70.33
80382;BME280;69692;55.820;37.490;2024-01-16T11:47:15;97257.28;;;-0.49;69.86
80382;BME280;69692;55.820;37.490;2024-01-16T11:49:41;97264.72;;;-0.65;69.96
80382;BME280;69692;55.820;37.490;2024-01-16T11:52:07;97256.38;;;-0.62;70.43
80382;BME280;69692;55.820;37.490;2024-01-16T11:54:33;97257.25;;;-0.68;70.15
80382;BME280;69692;55.820;37.490;2024-01-16T12:00:02;97253.47;;;-0.53;69.57
80382;BME280;69692;55.820;37.490;2024-01-16T12:05:13;97242.59;;;-0.45;68.44
80382;BME280;69692;55.820;37.490;2024-01-16T12:07:46;97241.72;;;-0.57;68.91
80382;BME280;69692;55.820;37.490;2024-01-16T12:10:18;97236.44;;;-0.57;68.73
80382;BME280;69692;55.820;37.490;2024-01-16T12:12:46;97229.22;;;-0.69;69.97
80382;BME280;69692;55.820;37.490;2024-01-16T12:15:16;97229.69;;;-0.53;69.50
80382;BME280;69692;55.820;37.490;2024-01-16T12:18:01;97232.19;;;-0.40;69.80
80382;BME280;69692;55.820;37.490;2024-01-16T12:20:30;97228.81;;;-0.47;69.40
80382;BME280;69692;55.820;37.490;2024-01-16T12:23:04;97233.81;;;-0.39;69.74
80382;BME280;69692;55.820;37.490;2024-01-16T12:25:34;97225.22;;;-0.35;69.06
80382;BME280;69692;55.820;37.490;2024-01-16T12:28:06;97232.69;;;-0.32;68.83
80382;BME280;69692;55.820;37.490;2024-01-16T12:30:34;97231.66;;;-0.31;68.91
80382;BME280;69692;55.820;37.490;2024-01-16T12:33:07;97235.56;;;-0.33;68.42
80382;BME280;69692;55.820;37.490;2024-01-16T12:35:41;97238.63;;;-0.36;68.39
80382;BME280;69692;55.820;37.490;2024-01-16T12:38:11;97233.22;;;-0.41;68.80
80382;BME280;69692;55.820;37.490;2024-01-16T12:40:46;97240.56;;;-0.43;68.86
80382;BME280;69692;55.820;37.490;2024-01-16T12:43:13;97239.44;;;-0.36;68.55
80382;BME280;69692;55.820;37.490;2024-01-16T12:45:39;97243.47;;;-0.33;68.49
80382;BME280;69692;55.820;37.490;2024-01-16T12:48:05;97234.88;;;-0.47;68.66
80382;BME280;69692;55.820;37.490;2024-01-16T12:50:32;97230.41;;;-0.46;69.38
80382;BME280;69692;55.820;37.490;2024-01-16T12:53:09;97225.75;;;-0.44;69.45
80382;BME280;69692;55.820;37.490;2024-01-16T12:55:37;97223.53;;;-0.47;68.61
80382;BME280;69692;55.820;37.490;2024-01-16T12:58:20;97221.03;;;-0.42;68.67
80382;BME280;69692;55.820;37.490;2024-01-16T13:00:50;97209.28;;;-0.46;68.36